createdAt,value
2023-03-26T00:02:10.365Z,99727.72
2023-03-26T00:05:14.594Z,99725.63
2023-03-26T00:08:17.196Z,99723.84
2023-03-26T00:11:22.028Z,99720.84
2023-03-26T00:14:24.252Z,99721.03
2023-03-26T00:17:26.789Z,99718.00
2023-03-26T00:20:32.731Z,99719.91
2023-03-26T00:23:35.690Z,99721.44
2023-03-26T00:26:38.391Z,99725.56
2023-03-26T00:29:40.836Z,99724.91
2023-03-26T00:32:44.516Z,99720.81
2023-03-26T00:35:58.920Z,99712.09
2023-03-26T00:39:05.113Z,99722.69
2023-03-26T00:42:08.247Z,99710.16
2023-03-26T00:45:11.222Z,99708.56
2023-03-26T00:48:14.959Z,99694.94
2023-03-26T00:51:18.944Z,99690.78
2023-03-26T00:54:21.346Z,99704.31
2023-03-26T00:57:34.998Z,99685.09
2023-03-26T01:01:09.931Z,99681.09
2023-03-26T01:04:28.136Z,99684.59
2023-03-26T01:07:31.333Z,99674.00
2023-03-26T01:10:38.673Z,99682.56
2023-03-26T01:13:47.016Z,99676.53
2023-03-26T01:16:58.904Z,99678.28
2023-03-26T01:20:19.261Z,99678.28
2023-03-26T01:23:24.479Z,99666.25
2023-03-26T01:26:48.838Z,99681.78
2023-03-26T01:30:11.246Z,99687.50
2023-03-26T01:33:46.762Z,99694.00
2023-03-26T01:37:13.168Z,99684.34
2023-03-26T01:40:26.450Z,99680.37
2023-03-26T01:43:32.226Z,99694.78
2023-03-26T01:46:38.129Z,99705.13
2023-03-26T01:49:41.634Z,99698.31
2023-03-26T01:52:44.177Z,99695.94
2023-03-26T01:56:15.350Z,99687.34
2023-03-26T01:59:23.088Z,99698.47
2023-03-26T02:02:38.861Z,99702.56
2023-03-26T02:05:52.719Z,99707.94
2023-03-26T02:09:03.641Z,99709.06
2023-03-26T02:12:08.190Z,99712.41
2023-03-26T02:15:12.063Z,99711.75
2023-03-26T02:18:14.192Z,99713.47
2023-03-26T02:21:22.654Z,99719.16
2023-03-26T02:24:25.940Z,99713.72
2023-03-26T02:27:28.931Z,99719.44
2023-03-26T02:30:33.639Z,99709.66
2023-03-26T02:33:37.109Z,99716.72
2023-03-26T02:36:42.858Z,99716.28
2023-03-26T02:39:45.915Z,99708.81
2023-03-26T02:42:49.638Z,99698.19
2023-03-26T02:45:52.718Z,99697.38
2023-03-26T02:48:59.398Z,99693.97
2023-03-26T02:52:06.288Z,99689.84
2023-03-26T02:55:08.962Z,99680.78
2023-03-26T02:58:12.272Z,99680.28
2023-03-26T03:01:18.319Z,99673.94
2023-03-26T03:04:21.846Z,99684.34
2023-03-26T03:07:25.173Z,99680.00
2023-03-26T03:10:28.512Z,99687.59
2023-03-26T03:13:31.950Z,99679.72
2023-03-26T03:16:34.464Z,99678.69
2023-03-26T03:19:38.630Z,99683.41
2023-03-26T03:22:41.695Z,99688.28
2023-03-26T03:25:44.082Z,99693.19
2023-03-26T03:28:46.739Z,99688.87
2023-03-26T03:31:49.371Z,99685.38
2023-03-26T03:34:52.332Z,99691.41
2023-03-26T03:37:54.524Z,99684.81
2023-03-26T03:40:57.300Z,99685.44
2023-03-26T03:44:01.579Z,99681.59
2023-03-26T03:47:04.265Z,99688.97
2023-03-26T03:50:07.135Z,99700.44
2023-03-26T03:53:10.376Z,99699.47
2023-03-26T03:56:14.563Z,99702.81
2023-03-26T03:59:19.680Z,99708.62
2023-03-26T04:02:34.519Z,99706.84
2023-03-26T04:05:37.475Z,99718.59
2023-03-26T04:08:39.610Z,99715.53
2023-03-26T04:11:42.362Z,99725.41
2023-03-26T04:14:44.671Z,99716.22
2023-03-26T04:17:47.358Z,99712.47
2023-03-26T04:20:50.721Z,99708.72
2023-03-26T04:23:54.657Z,99701.66
2023-03-26T04:26:58.297Z,99706.22
2023-03-26T04:30:01.713Z,99696.06
2023-03-26T04:33:06.317Z,99696.75
2023-03-26T04:36:10.221Z,99699.13
2023-03-26T04:39:13.391Z,99708.00
2023-03-26T04:42:19.963Z,99705.28
2023-03-26T04:45:23.188Z,99709.47
2023-03-26T04:48:28.024Z,99718.75
2023-03-26T04:51:38.342Z,99711.41
2023-03-26T04:54:45.412Z,99707.62
2023-03-26T04:57:52.929Z,99715.69
2023-03-26T05:00:57.274Z,99724.97
2023-03-26T05:03:59.868Z,99715.19
2023-03-26T05:07:03.375Z,99711.31
2023-03-26T05:10:06.703Z,99713.09
2023-03-26T05:13:09.561Z,99713.09
2023-03-26T05:16:12.055Z,99704.56
2023-03-26T05:19:15.017Z,99709.19
2023-03-26T05:22:17.392Z,99702.91
2023-03-26T05:25:23.284Z,99707.09
2023-03-26T05:28:26.645Z,99704.56
2023-03-26T05:31:32.364Z,99705.97
2023-03-26T05:34:34.642Z,99712.56
2023-03-26T05:37:38.868Z,99704.19
2023-03-26T05:40:41.115Z,99704.50
2023-03-26T05:43:44.893Z,99704.88
2023-03-26T05:46:47.312Z,99706.88
2023-03-26T05:49:53.304Z,99714.22
2023-03-26T05:52:55.688Z,99711.47
2023-03-26T05:55:59.171Z,99711.69
2023-03-26T05:59:06.719Z,99709.94
2023-03-26T06:02:12.454Z,99704.63
2023-03-26T06:05:15.797Z,99707.50
2023-03-26T06:08:20.579Z,99715.75
2023-03-26T06:11:23.253Z,99709.47
2023-03-26T06:14:25.453Z,99701.28
2023-03-26T06:17:29.903Z,99706.22
2023-03-26T06:20:35.587Z,99702.44
2023-03-26T06:23:38.459Z,99692.00
2023-03-26T06:26:40.708Z,99690.44
2023-03-26T06:29:44.495Z,99705.50
2023-03-26T06:32:47.001Z,99709.66
2023-03-26T06:35:50.281Z,99705.91
2023-03-26T06:38:52.744Z,99703.44
2023-03-26T06:41:55.435Z,99705.94
2023-03-26T06:44:57.823Z,99702.25
2023-03-26T06:48:02.790Z,99710.09
2023-03-26T06:51:06.102Z,99703.66
2023-03-26T06:54:11.124Z,99689.72
2023-03-26T06:57:13.864Z,99707.06
2023-03-26T07:00:17.842Z,99709.00
2023-03-26T07:03:23.363Z,99710.75
2023-03-26T07:06:38.423Z,99707.19
2023-03-26T07:10:04.898Z,99704.66
2023-03-26T07:13:10.427Z,99703.47
2023-03-26T07:16:14.285Z,99704.25
2023-03-26T07:19:17.772Z,99709.22
2023-03-26T07:22:22.537Z,99718.09
2023-03-26T07:25:29.078Z,99713.59
2023-03-26T07:29:04.738Z,99719.97
2023-03-26T07:32:18.900Z,99718.41
2023-03-26T07:35:41.704Z,99720.63
2023-03-26T07:38:53.605Z,99716.81
2023-03-26T07:42:21.149Z,99723.16
2023-03-26T07:45:39.459Z,99718.78
2023-03-26T07:48:44.537Z,99724.88
2023-03-26T07:51:48.369Z,99718.19
2023-03-26T07:54:51.382Z,99720.03
2023-03-26T07:58:23.989Z,99718.44
2023-03-26T08:01:35.688Z,99716.34
2023-03-26T08:04:50.505Z,99719.53
2023-03-26T08:08:11.469Z,99721.22
2023-03-26T08:11:41.944Z,99721.03
2023-03-26T08:15:05.225Z,99705.22
2023-03-26T08:18:49.159Z,99712.50
2023-03-26T08:21:58.464Z,99706.88
2023-03-26T08:25:25.527Z,99708.66
2023-03-26T08:28:44.591Z,99704.19
2023-03-26T08:31:49.228Z,99713.16
2023-03-26T08:34:52.716Z,99704.13
2023-03-26T08:37:55.313Z,99710.34
2023-03-26T08:41:15.037Z,99703.78
2023-03-26T08:44:55.770Z,99696.66
2023-03-26T08:48:19.553Z,99696.66
2023-03-26T08:51:49.452Z,99697.94
2023-03-26T08:55:12.618Z,99682.56
2023-03-26T08:58:24.715Z,99694.13
2023-03-26T09:01:54.117Z,99689.34
2023-03-26T09:05:21.440Z,99674.91
2023-03-26T09:08:57.348Z,99678.44
2023-03-26T09:12:37.565Z,99685.47
2023-03-26T09:16:07.846Z,99677.12
2023-03-26T09:19:35.576Z,99673.94
2023-03-26T09:22:58.910Z,99675.00
2023-03-26T09:26:32.660Z,99665.25
2023-03-26T09:29:59.640Z,99667.63
2023-03-26T09:33:17.070Z,99651.97
2023-03-26T09:36:29.618Z,99648.81
2023-03-26T09:40:05.082Z,99660.72
2023-03-26T09:43:40.243Z,99652.66
2023-03-26T09:47:34.829Z,99643.56
2023-03-26T09:51:06.625Z,99632.50
2023-03-26T09:54:33.969Z,99625.50
2023-03-26T09:58:25.682Z,99624.22
2023-03-26T10:01:54.254Z,99620.72
2023-03-26T10:05:04.880Z,99608.69
2023-03-26T10:08:30.883Z,99603.97
2023-03-26T10:11:52.610Z,99594.16
2023-03-26T10:15:04.328Z,99605.84
2023-03-26T10:18:32.528Z,99594.88
2023-03-26T10:22:13.625Z,99596.97
2023-03-26T10:25:29.216Z,99618.84
2023-03-26T10:28:53.057Z,99646.53
2023-03-26T10:32:07.073Z,99660.69
2023-03-26T10:35:31.448Z,99650.91
2023-03-26T10:39:02.039Z,99619.47
2023-03-26T10:42:13.307Z,99612.34
2023-03-26T10:45:28.769Z,99594.06
2023-03-26T10:48:45.286Z,99576.22
2023-03-26T10:51:55.830Z,99568.53
2023-03-26T10:55:09.600Z,99565.84
2023-03-26T10:58:48.553Z,99560.84
2023-03-26T11:02:30.435Z,99553.00
2023-03-26T11:05:48.020Z,99550.28
2023-03-26T11:09:03.650Z,99534.81
2023-03-26T11:12:26.570Z,99526.88
2023-03-26T11:15:40.469Z,99525.19
2023-03-26T11:19:01.625Z,99521.09
2023-03-26T11:22:16.984Z,99512.84
2023-03-26T11:25:31.304Z,99495.59
2023-03-26T11:29:03.645Z,99491.31
2023-03-26T11:32:21.115Z,99489.72
2023-03-26T11:35:40.383Z,99482.72
2023-03-26T11:38:47.869Z,99481.38
2023-03-26T11:41:56.067Z,99473.66
2023-03-26T11:45:20.836Z,99471.69
2023-03-26T11:48:28.711Z,99465.06
2023-03-26T11:51:36.677Z,99465.50
2023-03-26T11:54:38.905Z,99453.16
2023-03-26T11:57:50.077Z,99445.22
2023-03-26T12:00:54.085Z,99434.84
2023-03-26T12:03:58.876Z,99427.28
2023-03-26T12:07:21.133Z,99418.59
2023-03-26T12:10:31.489Z,99406.63
2023-03-26T12:13:43.537Z,99400.56
2023-03-26T12:17:01.182Z,99393.63
2023-03-26T12:20:26.240Z,99380.72
2023-03-26T12:23:57.827Z,99376.25
2023-03-26T12:27:28.482Z,99380.19
2023-03-26T12:30:31.175Z,99354.03
2023-03-26T12:33:35.068Z,99361.75
2023-03-26T12:36:39.038Z,99349.16
2023-03-26T12:40:08.931Z,99342.28
2023-03-26T12:44:56.641Z,99339.72
2023-03-26T12:47:57.560Z,99325.50
2023-03-26T12:51:13.678Z,99312.34
2023-03-26T12:54:33.189Z,99316.53
2023-03-26T12:57:43.752Z,99316.81
2023-03-26T13:00:58.803Z,99317.31
2023-03-26T13:04:04.198Z,99312.97
2023-03-26T13:07:32.682Z,99309.50
2023-03-26T13:11:26.100Z,99308.34
2023-03-26T13:14:43.805Z,99297.19
2023-03-26T13:18:06.202Z,99281.41
2023-03-26T13:21:16.565Z,99274.00
2023-03-26T13:24:37.519Z,99270.19
2023-03-26T13:28:03.957Z,99265.03
2023-03-26T13:31:16.746Z,99252.25
2023-03-26T13:34:36.728Z,99245.22
2023-03-26T13:38:30.256Z,99248.75
2023-03-26T13:42:10.550Z,99245.87
2023-03-26T13:45:36.516Z,99238.34
2023-03-26T13:48:49.800Z,99227.75
2023-03-26T13:52:09.259Z,99227.31
2023-03-26T13:55:30.667Z,99219.53
2023-03-26T13:58:42.021Z,99218.69
2023-03-26T14:01:51.394Z,99210.81
2023-03-26T14:04:58.625Z,99197.62
2023-03-26T14:08:14.612Z,99195.81
2023-03-26T14:11:27.865Z,99188.56
2023-03-26T14:14:55.645Z,99178.63
2023-03-26T14:18:32.188Z,99180.69
2023-03-26T14:21:58.965Z,99183.38
2023-03-26T14:25:19.914Z,99185.25
2023-03-26T14:28:38.429Z,99170.22
2023-03-26T14:31:59.585Z,99171.44
2023-03-26T14:35:10.635Z,99166.44
2023-03-26T14:38:56.686Z,99170.47
2023-03-26T14:42:19.362Z,99161.06
2023-03-26T14:45:48.444Z,99149.00
2023-03-26T14:49:22.100Z,99149.78
2023-03-26T14:52:31.025Z,99149.75
2023-03-26T14:55:42.232Z,99139.25
2023-03-26T14:59:18.868Z,99148.06
2023-03-26T15:03:07.901Z,99137.16
2023-03-26T15:06:25.498Z,99112.69
2023-03-26T15:09:40.297Z,99103.38
2023-03-26T15:13:11.052Z,99105.78
2023-03-26T15:16:50.732Z,99098.69
2023-03-26T15:19:53.170Z,99100.88
2023-03-26T15:23:32.403Z,99094.19
2023-03-26T15:27:29.084Z,99088.78
2023-03-26T15:30:49.793Z,99079.34
2023-03-26T15:34:43.657Z,99076.66
2023-03-26T15:38:09.063Z,99072.78
2023-03-26T15:41:25.439Z,99058.78
2023-03-26T15:44:54.688Z,99070.44
2023-03-26T15:48:12.587Z,99064.97
2023-03-26T15:51:46.196Z,99061.47
2023-03-26T15:54:55.954Z,99066.94
2023-03-26T15:58:26.096Z,99064.53
2023-03-26T16:01:50.422Z,99057.13
2023-03-26T16:04:55.818Z,99048.50
2023-03-26T16:08:29.047Z,99034.47
2023-03-26T16:11:55.003Z,99029.66
2023-03-26T16:15:07.269Z,99022.59
2023-03-26T16:18:15.660Z,99018.47
2023-03-26T16:21:36.395Z,99012.03
2023-03-26T16:24:49.362Z,99008.03
2023-03-26T16:28:09.989Z,98998.97
2023-03-26T16:31:36.387Z,98993.00
2023-03-26T16:34:45.392Z,98989.75
2023-03-26T16:37:52.099Z,98991.97
2023-03-26T16:41:15.808Z,98991.09
2023-03-26T16:44:46.607Z,98994.87
2023-03-26T16:48:17.499Z,98989.72
2023-03-26T16:51:27.360Z,98993.09
2023-03-26T16:54:54.120Z,98995.72
2023-03-26T16:58:21.922Z,99005.69
2023-03-26T17:01:33.130Z,98998.19
2023-03-26T17:04:36.905Z,99000.44
2023-03-26T17:07:47.058Z,99003.16
2023-03-26T17:11:07.106Z,99001.06
2023-03-26T17:14:28.266Z,99002.47
2023-03-26T17:17:55.535Z,98999.28
2023-03-26T17:21:00.968Z,98994.53
2023-03-26T17:24:15.524Z,98996.69
2023-03-26T17:27:54.487Z,98995.44
2023-03-26T17:31:10.873Z,98995.34
2023-03-26T17:34:37.885Z,98999.94
2023-03-26T17:37:47.082Z,99001.06
2023-03-26T17:40:51.628Z,98996.31
2023-03-26T17:43:56.929Z,99001.34
2023-03-26T17:47:01.411Z,98995.81
2023-03-26T17:50:30.621Z,98995.41
2023-03-26T17:53:36.588Z,98984.84
2023-03-26T17:56:40.904Z,98992.59
2023-03-26T17:59:45.050Z,98992.66
2023-03-26T18:02:55.275Z,98993.31
2023-03-26T18:06:13.967Z,98988.19
2023-03-26T18:09:48.130Z,98990.78
2023-03-26T18:13:02.849Z,98993.06
2023-03-26T18:16:12.206Z,98989.88
2023-03-26T18:19:21.961Z,98992.22
2023-03-26T18:22:28.353Z,98985.25
2023-03-26T18:25:33.974Z,98988.37
2023-03-26T18:28:42.182Z,98983.22
2023-03-26T18:31:46.516Z,98985.94
2023-03-26T18:34:54.239Z,98972.31
2023-03-26T18:38:00.921Z,98979.31
2023-03-26T18:41:05.903Z,98970.03
2023-03-26T18:44:15.588Z,98970.81
2023-03-26T18:47:18.677Z,98961.78
2023-03-26T18:50:27.275Z,98956.25
2023-03-26T18:53:35.656Z,98950.31
2023-03-26T18:56:43.386Z,98949.06
2023-03-26T18:59:46.195Z,98935.84
2023-03-26T19:02:54.274Z,98935.34
2023-03-26T19:05:58.224Z,98925.63
2023-03-26T19:09:01.297Z,98929.13
2023-03-26T19:12:14.332Z,98921.44
2023-03-26T19:15:18.166Z,98913.19
2023-03-26T19:18:25.413Z,98911.16
2023-03-26T19:21:28.203Z,98907.56
2023-03-26T19:24:31.172Z,98915.22
2023-03-26T19:27:34.077Z,98905.03
2023-03-26T19:30:40.690Z,98908.47
2023-03-26T19:33:44.320Z,98898.28
2023-03-26T19:37:00.928Z,98897.06
2023-03-26T19:40:18.848Z,98886.44
2023-03-26T19:43:21.363Z,98878.25
2023-03-26T19:46:25.612Z,98878.56
2023-03-26T19:49:33.407Z,98861.53
2023-03-26T19:52:39.349Z,98861.53
2023-03-26T19:55:42.231Z,98850.69
2023-03-26T19:58:44.930Z,98847.47
2023-03-26T20:01:47.150Z,98842.78
2023-03-26T20:04:50.020Z,98832.63
2023-03-26T20:07:56.065Z,98831.84
2023-03-26T20:10:59.201Z,98823.25
2023-03-26T20:14:02.473Z,98820.59
2023-03-26T20:17:12.304Z,98800.75
2023-03-26T20:20:15.713Z,98803.81
2023-03-26T20:23:18.873Z,98794.53
2023-03-26T20:26:23.069Z,98786.78
2023-03-26T20:29:25.522Z,98785.88
2023-03-26T20:32:27.694Z,98774.94
2023-03-26T20:35:36.231Z,98770.12
2023-03-26T20:38:40.148Z,98774.13
2023-03-26T20:41:48.242Z,98759.41
2023-03-26T20:44:50.405Z,98751.94
2023-03-26T20:47:55.785Z,98761.59
2023-03-26T20:50:57.938Z,98754.28
2023-03-26T20:54:00.616Z,98757.00
2023-03-26T20:57:02.956Z,98753.88
2023-03-26T21:00:16.088Z,98752.31
2023-03-26T21:03:18.850Z,98750.75
2023-03-26T21:06:21.275Z,98739.16
2023-03-26T21:09:25.049Z,98737.97
2023-03-26T21:12:31.704Z,98733.75
2023-03-26T21:15:34.898Z,98728.69
2023-03-26T21:18:37.801Z,98729.91
2023-03-26T21:22:05.026Z,98735.19
2023-03-26T21:25:17.336Z,98743.72
2023-03-26T21:28:32.211Z,98757.22
2023-03-26T21:31:42.425Z,98764.91
2023-03-26T21:34:55.758Z,98763.66
2023-03-26T21:38:03.139Z,98778.31
2023-03-26T21:41:05.644Z,98778.81
2023-03-26T21:44:08.642Z,98769.88
2023-03-26T21:47:11.231Z,98781.63
2023-03-26T21:50:17.624Z,98773.13
2023-03-26T21:53:20.043Z,98780.41
2023-03-26T21:56:50.064Z,98773.37
2023-03-26T22:00:19.332Z,98769.81
2023-03-26T22:03:33.000Z,98770.59
2023-03-26T22:06:42.883Z,98768.16
2023-03-26T22:09:45.850Z,98769.94
2023-03-26T22:12:48.223Z,98771.84
2023-03-26T22:15:50.942Z,98767.06
2023-03-26T22:18:53.782Z,98761.50
2023-03-26T22:21:56.272Z,98760.97
2023-03-26T22:24:58.377Z,98763.34
2023-03-26T22:28:00.809Z,98762.47
2023-03-26T22:31:08.524Z,98765.72
2023-03-26T22:34:11.687Z,98758.53
2023-03-26T22:37:14.158Z,98751.37
2023-03-26T22:40:17.801Z,98755.31
2023-03-26T22:43:19.930Z,98742.22
2023-03-26T22:46:22.806Z,98733.00
2023-03-26T22:49:30.115Z,98732.16
2023-03-26T22:52:34.509Z,98732.38
2023-03-26T22:55:37.416Z,98724.88
2023-03-26T22:58:40.255Z,98719.72
2023-03-26T23:01:44.203Z,98709.94
2023-03-26T23:04:48.501Z,98700.72
2023-03-26T23:07:51.898Z,98695.47
2023-03-26T23:10:54.554Z,98694.75
2023-03-26T23:13:56.961Z,98702.06
2023-03-26T23:16:59.711Z,98700.84
2023-03-26T23:20:06.070Z,98691.66
2023-03-26T23:23:08.768Z,98687.81
2023-03-26T23:26:11.218Z,98691.91
2023-03-26T23:29:13.846Z,98680.50
2023-03-26T23:32:24.503Z,98681.22
2023-03-26T23:35:27.591Z,98679.69
2023-03-26T23:38:44.092Z,98677.06
2023-03-26T23:41:47.032Z,98672.47
2023-03-26T23:44:49.288Z,98660.69
2023-03-26T23:47:52.132Z,98654.94
2023-03-26T23:51:03.824Z,98636.31
2023-03-26T23:54:08.562Z,98632.03
2023-03-26T23:57:10.759Z,98635.88
